createdAt,value
2022-10-17T00:01:31.321Z,14.59
2022-10-17T00:07:36.555Z,14.24
2022-10-17T00:10:40.039Z,14.12
2022-10-17T00:13:42.707Z,14.31
2022-10-17T00:16:46.694Z,14.33
2022-10-17T00:19:49.381Z,14.41
2022-10-17T00:22:52.176Z,14.25
2022-10-17T00:26:01.702Z,14.23
2022-10-17T00:29:04.436Z,14.23
2022-10-17T00:32:08.570Z,14.22
2022-10-17T00:35:11.382Z,14.27
2022-10-17T00:38:14.039Z,14.31
2022-10-17T00:41:17.734Z,14.33
2022-10-17T00:44:39.178Z,14.24
2022-10-17T00:47:43.893Z,14.22
2022-10-17T00:50:49.028Z,14.17
2022-10-17T00:53:52.515Z,14.20
2022-10-17T00:56:55.716Z,14.14
2022-10-17T01:00:00.322Z,14.17
2022-10-17T01:03:04.634Z,14.14
2022-10-17T01:06:07.259Z,14.18
2022-10-17T01:09:09.999Z,14.22
2022-10-17T01:12:14.493Z,14.14
2022-10-17T01:15:21.551Z,14.17
2022-10-17T01:18:30.956Z,14.21
2022-10-17T01:21:41.249Z,14.25
2022-10-17T01:24:53.071Z,14.29
2022-10-17T01:28:06.898Z,14.32
2022-10-17T01:31:13.279Z,14.31
2022-10-17T01:34:20.028Z,14.36
2022-10-17T01:37:28.321Z,14.29
2022-10-17T01:40:35.764Z,14.31
2022-10-17T01:43:41.110Z,14.29
2022-10-17T01:46:48.167Z,14.30
2022-10-17T01:49:52.493Z,14.36
2022-10-17T01:52:59.033Z,14.46
2022-10-17T01:56:04.850Z,14.50
2022-10-17T01:59:12.015Z,14.60
2022-10-17T02:02:17.681Z,14.69
2022-10-17T02:05:22.776Z,14.71
2022-10-17T02:08:29.165Z,14.71
2022-10-17T02:11:32.779Z,14.77
2022-10-17T02:14:42.417Z,14.83
2022-10-17T02:17:51.136Z,14.87
2022-10-17T02:20:57.910Z,14.86
2022-10-17T02:24:04.708Z,14.95
2022-10-17T02:27:13.018Z,15.00
2022-10-17T02:30:21.321Z,14.99
2022-10-17T02:33:28.937Z,14.94
2022-10-17T02:36:34.278Z,14.90
2022-10-17T02:39:38.186Z,14.94
2022-10-17T02:42:43.526Z,14.93
2022-10-17T02:45:47.246Z,14.91
2022-10-17T02:48:52.737Z,14.94
2022-10-17T02:52:00.183Z,14.96
2022-10-17T02:55:06.022Z,14.95
2022-10-17T02:58:12.427Z,15.03
2022-10-17T03:01:15.138Z,15.05
2022-10-17T03:04:19.551Z,15.07
2022-10-17T03:07:22.204Z,15.07
2022-10-17T03:10:25.002Z,15.05
2022-10-17T03:13:28.382Z,15.06
2022-10-17T03:16:31.280Z,15.04
2022-10-17T03:19:35.371Z,15.10
2022-10-17T03:22:38.045Z,15.11
2022-10-17T03:25:42.012Z,15.17
2022-10-17T03:28:44.723Z,15.20
2022-10-17T03:31:47.404Z,15.22
2022-10-17T03:34:51.472Z,15.19
2022-10-17T03:37:56.057Z,15.19
2022-10-17T03:40:59.930Z,15.28
2022-10-17T03:44:02.738Z,15.32
2022-10-17T03:47:08.095Z,15.34
2022-10-17T03:50:15.014Z,15.38
2022-10-17T03:53:18.632Z,15.39
2022-10-17T03:56:22.445Z,15.36
2022-10-17T03:59:32.656Z,15.35
2022-10-17T04:02:40.828Z,15.44
2022-10-17T04:05:46.817Z,15.48
2022-10-17T04:08:49.637Z,15.52
2022-10-17T04:12:02.859Z,15.56
2022-10-17T04:15:06.710Z,15.58
2022-10-17T04:18:09.585Z,15.58
2022-10-17T04:21:14.551Z,15.63
2022-10-17T04:24:17.328Z,15.65
2022-10-17T04:27:39.196Z,15.67
2022-10-17T04:30:45.136Z,15.70
2022-10-17T04:33:49.351Z,15.71
2022-10-17T04:36:53.478Z,15.64
2022-10-17T04:39:56.146Z,15.68
2022-10-17T04:42:58.864Z,15.62
2022-10-17T04:46:10.087Z,15.60
2022-10-17T04:49:12.805Z,15.58
2022-10-17T04:52:20.207Z,15.54
2022-10-17T04:55:25.296Z,15.47
2022-10-17T04:58:29.441Z,15.54
2022-10-17T05:01:32.136Z,15.47
2022-10-17T05:04:35.792Z,15.45
2022-10-17T05:07:41.893Z,15.47
2022-10-17T05:10:54.383Z,15.45
2022-10-17T05:13:57.954Z,15.39
2022-10-17T05:17:00.821Z,15.47
2022-10-17T05:20:04.454Z,15.46
2022-10-17T05:23:10.268Z,15.47
2022-10-17T05:26:16.510Z,15.42
2022-10-17T05:29:19.198Z,15.32
2022-10-17T05:32:27.580Z,15.33
2022-10-17T05:35:31.216Z,15.15
2022-10-17T05:38:35.415Z,14.79
2022-10-17T05:41:38.630Z,14.71
2022-10-17T05:44:41.813Z,14.71
2022-10-17T05:47:44.886Z,14.72
2022-10-17T05:50:48.758Z,14.52
2022-10-17T05:53:54.274Z,14.52
2022-10-17T05:57:00.774Z,14.52
2022-10-17T06:00:07.439Z,14.60
2022-10-17T06:03:19.281Z,14.66
2022-10-17T06:06:23.807Z,14.66
2022-10-17T06:09:29.331Z,14.77
2022-10-17T06:12:32.503Z,14.85
2022-10-17T06:15:35.651Z,14.91
2022-10-17T06:18:42.178Z,14.95
2022-10-17T06:21:44.962Z,15.02
2022-10-17T06:24:52.667Z,15.04
2022-10-17T06:27:55.632Z,15.13
2022-10-17T06:30:58.438Z,15.23
2022-10-17T06:34:01.126Z,15.32
2022-10-17T06:37:04.964Z,15.34
2022-10-17T06:40:12.291Z,15.49
2022-10-17T06:43:15.694Z,15.55
2022-10-17T06:46:32.231Z,15.58
2022-10-17T06:49:37.523Z,15.65
2022-10-17T06:52:53.869Z,15.71
2022-10-17T06:56:16.773Z,15.83
2022-10-17T06:59:30.282Z,15.88
2022-10-17T07:02:38.009Z,16.03
2022-10-17T07:05:40.650Z,16.11
2022-10-17T07:08:44.490Z,16.22
2022-10-17T07:11:48.975Z,16.23
2022-10-17T07:14:54.039Z,16.29
2022-10-17T07:17:57.512Z,16.42
2022-10-17T07:21:01.029Z,16.45
2022-10-17T07:24:03.819Z,16.56
2022-10-17T07:27:08.197Z,16.69
2022-10-17T07:30:11.669Z,16.86
2022-10-17T07:33:16.364Z,17.00
2022-10-17T07:36:20.209Z,17.16
2022-10-17T07:39:23.149Z,17.36
2022-10-17T07:42:27.981Z,17.53
2022-10-17T07:45:30.840Z,17.50
2022-10-17T07:48:33.888Z,17.51
2022-10-17T07:51:36.790Z,17.64
2022-10-17T07:54:39.506Z,17.66
2022-10-17T07:57:43.618Z,17.80
2022-10-17T08:00:48.434Z,17.84
2022-10-17T08:03:51.390Z,18.01
2022-10-17T08:07:00.658Z,17.99
2022-10-17T08:10:15.359Z,18.26
2022-10-17T08:13:19.330Z,18.27
2022-10-17T08:16:22.153Z,18.44
2022-10-17T08:19:24.772Z,18.53
2022-10-17T08:22:28.056Z,18.62
2022-10-17T08:25:30.928Z,18.82
2022-10-17T08:28:37.049Z,18.82
2022-10-17T08:31:39.722Z,18.88
2022-10-17T08:34:42.410Z,19.02
2022-10-17T08:37:45.058Z,19.08
2022-10-17T08:40:50.058Z,19.33
2022-10-17T08:44:01.646Z,19.31
2022-10-17T08:47:07.599Z,19.47
2022-10-17T08:50:13.880Z,19.69
2022-10-17T08:53:19.030Z,19.67
2022-10-17T08:56:44.173Z,19.86
2022-10-17T08:59:52.064Z,19.96
2022-10-17T09:03:00.557Z,20.10
2022-10-17T09:06:11.925Z,20.19
2022-10-17T09:09:22.539Z,20.37
2022-10-17T09:12:28.829Z,20.48
2022-10-17T09:15:49.235Z,20.67
2022-10-17T09:18:59.906Z,20.59
2022-10-17T09:22:04.505Z,20.80
2022-10-17T09:25:12.661Z,20.84
2022-10-17T09:28:17.719Z,20.91
2022-10-17T09:31:23.092Z,21.10
2022-10-17T09:34:28.448Z,21.08
2022-10-17T09:37:32.206Z,21.28
2022-10-17T09:40:35.998Z,21.41
2022-10-17T09:43:40.166Z,21.47
2022-10-17T09:46:44.767Z,21.63
2022-10-17T09:49:49.663Z,21.89
2022-10-17T09:52:53.333Z,22.07
2022-10-17T09:55:58.094Z,22.30
2022-10-17T09:59:00.930Z,22.24
2022-10-17T10:02:11.327Z,22.34
2022-10-17T10:05:18.008Z,22.46
2022-10-17T10:08:20.892Z,22.49
2022-10-17T10:11:24.599Z,22.46
2022-10-17T10:14:30.431Z,22.46
2022-10-17T10:17:38.414Z,22.37
2022-10-17T10:20:46.738Z,22.43
2022-10-17T10:24:04.317Z,22.58
2022-10-17T10:27:07.389Z,22.74
2022-10-17T10:30:18.372Z,22.71
2022-10-17T10:33:22.394Z,22.87
2022-10-17T10:36:26.514Z,22.81
2022-10-17T10:39:44.119Z,22.91
2022-10-17T10:42:48.571Z,23.05
2022-10-17T10:45:52.646Z,23.12
2022-10-17T10:48:58.488Z,23.06
2022-10-17T10:52:05.369Z,23.14
2022-10-17T10:55:17.120Z,23.09
2022-10-17T10:58:25.024Z,23.20
2022-10-17T11:01:31.722Z,23.37
2022-10-17T11:04:37.760Z,23.39
2022-10-17T11:07:46.423Z,23.50
2022-10-17T11:10:59.291Z,23.66
2022-10-17T11:14:05.514Z,23.77
2022-10-17T11:17:14.115Z,23.85
2022-10-17T11:20:21.485Z,23.89
2022-10-17T11:23:30.744Z,23.99
2022-10-17T11:26:36.892Z,24.06
2022-10-17T11:29:42.467Z,24.03
2022-10-17T11:32:48.003Z,24.08
2022-10-17T11:35:53.518Z,24.12
2022-10-17T11:39:01.819Z,24.27
2022-10-17T11:42:08.312Z,24.41
2022-10-17T11:45:16.383Z,24.50
2022-10-17T11:48:24.252Z,24.58
2022-10-17T11:54:56.760Z,24.64
2022-10-17T11:58:07.253Z,24.79
2022-10-17T12:01:16.797Z,24.78
2022-10-17T12:04:24.470Z,24.88
2022-10-17T12:07:31.378Z,24.81
2022-10-17T12:10:40.467Z,24.80
2022-10-17T12:13:54.502Z,24.75
2022-10-17T12:16:57.182Z,24.70
2022-10-17T12:20:25.217Z,24.85
2022-10-17T12:23:28.554Z,24.85
2022-10-17T12:26:32.799Z,24.87
2022-10-17T12:29:35.768Z,24.83
2022-10-17T12:33:00.031Z,24.86
2022-10-17T12:36:21.107Z,24.99
2022-10-17T12:39:44.680Z,25.00
2022-10-17T12:42:50.286Z,25.11
2022-10-17T12:45:53.810Z,24.99
2022-10-17T12:49:00.591Z,25.04
2022-10-17T12:52:27.183Z,25.02
2022-10-17T12:55:30.152Z,25.16
2022-10-17T12:58:35.263Z,24.89
2022-10-17T13:01:39.223Z,25.07
2022-10-17T13:04:42.056Z,25.11
2022-10-17T13:07:47.534Z,24.89
2022-10-17T13:10:52.539Z,24.77
2022-10-17T13:13:58.251Z,24.63
2022-10-17T13:17:02.741Z,24.49
2022-10-17T13:20:05.550Z,24.35
2022-10-17T13:23:22.799Z,24.13
2022-10-17T13:26:26.499Z,23.97
2022-10-17T13:29:32.096Z,23.90
2022-10-17T13:32:37.209Z,23.87
2022-10-17T13:35:59.390Z,23.87
2022-10-17T13:39:12.299Z,23.95
2022-10-17T13:42:18.890Z,24.13
2022-10-17T13:45:25.554Z,24.27
2022-10-17T13:48:29.509Z,24.32
2022-10-17T13:51:32.140Z,24.24
2022-10-17T13:54:40.435Z,24.28
2022-10-17T13:57:43.174Z,24.14
2022-10-17T14:00:49.145Z,24.09
2022-10-17T14:04:07.176Z,24.03
2022-10-17T14:07:22.287Z,23.89
2022-10-17T14:10:26.098Z,23.85
2022-10-17T14:13:30.158Z,23.83
2022-10-17T14:16:39.160Z,23.87
2022-10-17T14:19:42.080Z,23.86
2022-10-17T14:22:50.555Z,23.92
2022-10-17T14:26:06.419Z,23.88
2022-10-17T14:29:21.359Z,23.97
2022-10-17T14:32:25.474Z,23.94
2022-10-17T14:35:41.528Z,23.94
2022-10-17T14:38:49.027Z,23.90
2022-10-17T14:41:52.325Z,23.96
2022-10-17T14:44:55.776Z,23.82
2022-10-17T14:48:02.930Z,23.83
2022-10-17T14:51:09.512Z,23.86
2022-10-17T14:54:20.555Z,23.87
2022-10-17T14:57:25.429Z,23.78
2022-10-17T15:00:28.490Z,23.68
2022-10-17T15:03:32.548Z,23.65
2022-10-17T15:06:35.575Z,23.57
2022-10-17T15:09:38.200Z,23.39
2022-10-17T15:12:51.023Z,23.30
2022-10-17T15:16:01.637Z,23.15
2022-10-17T15:19:08.135Z,23.04
2022-10-17T15:22:10.826Z,23.06
2022-10-17T15:28:08.010Z,22.94
2022-10-17T15:31:13.877Z,22.73
2022-10-17T15:34:16.671Z,22.60
2022-10-17T15:37:22.446Z,22.55
2022-10-17T15:40:28.209Z,22.41
2022-10-17T15:43:32.392Z,22.18
2022-10-17T15:46:36.483Z,22.03
2022-10-17T15:49:39.273Z,21.88
2022-10-17T15:52:42.388Z,21.74
2022-10-17T15:55:45.365Z,21.84
2022-10-17T15:58:50.442Z,21.80
2022-10-17T16:01:53.597Z,21.75
2022-10-17T16:04:56.593Z,21.74
2022-10-17T16:07:59.473Z,21.50
2022-10-17T16:11:02.421Z,21.13
2022-10-17T16:14:09.072Z,20.79
2022-10-17T16:17:16.066Z,20.71
2022-10-17T16:20:19.675Z,20.67
2022-10-17T16:23:23.030Z,20.65
2022-10-17T16:26:26.174Z,20.58
2022-10-17T16:29:30.365Z,20.45
2022-10-17T16:32:33.474Z,20.37
2022-10-17T16:35:37.578Z,20.28
2022-10-17T16:38:40.834Z,20.20
2022-10-17T16:41:43.661Z,19.96
2022-10-17T16:44:48.663Z,19.84
2022-10-17T16:47:53.044Z,19.52
2022-10-17T16:50:55.881Z,19.27
2022-10-17T16:54:00.212Z,19.07
2022-10-17T16:57:03.105Z,19.10
2022-10-17T17:00:09.259Z,18.81
2022-10-17T17:03:12.190Z,18.92
2022-10-17T17:06:17.601Z,18.64
2022-10-17T17:09:20.584Z,18.36
2022-10-17T17:12:23.773Z,18.60
2022-10-17T17:15:28.459Z,18.60
2022-10-17T17:18:31.708Z,18.62
2022-10-17T17:21:36.166Z,18.34
2022-10-17T17:24:39.447Z,18.13
2022-10-17T17:27:42.592Z,17.98
2022-10-17T17:30:47.073Z,17.93
2022-10-17T17:33:51.186Z,17.94
2022-10-17T17:36:54.297Z,17.86
2022-10-17T17:39:58.556Z,17.98
2022-10-17T17:43:02.197Z,18.08
2022-10-17T17:46:07.570Z,18.01
2022-10-17T17:49:11.606Z,17.93
2022-10-17T17:52:14.580Z,17.70
2022-10-17T17:55:17.637Z,17.71
2022-10-17T17:58:20.755Z,17.80
2022-10-17T18:01:28.382Z,17.91
2022-10-17T18:04:31.411Z,17.92
2022-10-17T18:07:37.518Z,17.84
2022-10-17T18:10:40.483Z,17.88
2022-10-17T18:13:43.674Z,17.66
2022-10-17T18:16:48.215Z,17.70
2022-10-17T18:19:51.155Z,17.53
2022-10-17T18:22:54.112Z,17.44
2022-10-17T18:25:58.499Z,17.45
2022-10-17T18:29:01.545Z,17.54
2022-10-17T18:32:06.280Z,17.60
2022-10-17T18:35:10.030Z,17.50
2022-10-17T18:38:13.638Z,17.56
2022-10-17T18:41:18.736Z,17.11
2022-10-17T18:44:21.600Z,16.68
2022-10-17T18:47:25.981Z,16.60
2022-10-17T18:50:30.074Z,16.72
2022-10-17T18:53:36.011Z,16.79
2022-10-17T18:56:40.176Z,16.74
2022-10-17T18:59:43.811Z,16.85
2022-10-17T19:02:48.255Z,16.89
2022-10-17T19:05:53.559Z,16.95
2022-10-17T19:08:58.061Z,16.57
2022-10-17T19:12:02.332Z,16.52
2022-10-17T19:15:05.947Z,16.49
2022-10-17T19:18:10.376Z,16.67
2022-10-17T19:21:14.560Z,16.68
2022-10-17T19:24:20.902Z,16.65
2022-10-17T19:27:23.921Z,16.42
2022-10-17T19:30:26.844Z,15.98
2022-10-17T19:33:33.092Z,16.16
2022-10-17T19:36:36.616Z,16.13
2022-10-17T19:39:39.774Z,16.17
2022-10-17T19:42:42.850Z,16.02
2022-10-17T19:45:54.693Z,16.08
2022-10-17T19:48:59.089Z,16.14
2022-10-17T19:52:01.957Z,15.89
2022-10-17T19:55:05.178Z,15.51
2022-10-17T19:58:08.178Z,15.18
2022-10-17T20:01:12.126Z,14.89
2022-10-17T20:04:16.456Z,15.15
2022-10-17T20:07:19.276Z,15.18
2022-10-17T20:10:22.435Z,15.33
2022-10-17T20:13:25.324Z,15.50
2022-10-17T20:16:31.291Z,15.42
2022-10-17T20:19:35.630Z,15.42
2022-10-17T20:22:38.720Z,15.17
2022-10-17T20:25:41.620Z,15.19
2022-10-17T20:28:45.194Z,15.21
2022-10-17T20:31:49.109Z,15.11
2022-10-17T20:34:53.473Z,15.18
2022-10-17T20:37:56.375Z,15.36
2022-10-17T20:41:01.770Z,15.45
2022-10-17T20:44:06.836Z,15.53
2022-10-17T20:47:16.278Z,15.51
2022-10-17T20:50:25.301Z,15.59
2022-10-17T20:53:37.395Z,15.63
2022-10-17T20:56:41.146Z,15.61
2022-10-17T20:59:45.569Z,15.51
2022-10-17T21:02:48.462Z,15.16
2022-10-17T21:05:52.720Z,15.25
2022-10-17T21:08:56.599Z,15.37
2022-10-17T21:15:04.464Z,15.46
2022-10-17T21:18:07.295Z,15.11
2022-10-17T21:21:13.836Z,14.97
2022-10-17T21:24:20.431Z,14.88
2022-10-17T21:27:23.266Z,14.89
2022-10-17T21:30:26.100Z,14.84
2022-10-17T21:33:29.851Z,14.61
2022-10-17T21:36:34.097Z,14.64
2022-10-17T21:39:36.905Z,14.60
2022-10-17T21:42:39.828Z,14.61
2022-10-17T21:45:42.678Z,14.56
2022-10-17T21:48:46.932Z,14.58
2022-10-17T21:51:51.940Z,14.30
2022-10-17T21:54:54.739Z,14.35
2022-10-17T21:57:57.634Z,14.50
2022-10-17T22:01:05.592Z,14.09
2022-10-17T22:04:11.437Z,14.38
2022-10-17T22:07:15.611Z,14.13
2022-10-17T22:10:18.528Z,14.09
2022-10-17T22:13:21.359Z,14.09
2022-10-17T22:16:24.995Z,14.01
2022-10-17T22:19:28.373Z,13.86
2022-10-17T22:22:32.807Z,13.78
2022-10-17T22:25:35.697Z,13.87
2022-10-17T22:28:39.339Z,13.83
2022-10-17T22:31:42.598Z,13.84
2022-10-17T22:34:46.442Z,13.79
2022-10-17T22:37:51.321Z,13.66
2022-10-17T22:40:54.367Z,13.65
2022-10-17T22:43:57.331Z,13.78
2022-10-17T22:47:00.234Z,13.49
2022-10-17T22:50:03.094Z,13.48
2022-10-17T22:53:07.260Z,13.34
2022-10-17T22:56:12.224Z,13.36
2022-10-17T22:59:15.358Z,13.45
2022-10-17T23:02:18.181Z,13.36
2022-10-17T23:05:21.142Z,13.00
2022-10-17T23:08:25.833Z,13.15
2022-10-17T23:11:29.089Z,13.11
2022-10-17T23:14:31.941Z,13.12
2022-10-17T23:17:34.711Z,13.28
2022-10-17T23:20:38.759Z,13.06
2022-10-17T23:23:42.998Z,12.93
2022-10-17T23:26:45.828Z,13.05
2022-10-17T23:29:48.664Z,12.97
2022-10-17T23:32:51.556Z,12.95
2022-10-17T23:35:54.383Z,12.71
2022-10-17T23:38:58.812Z,12.73
2022-10-17T23:42:01.649Z,12.79
2022-10-17T23:45:05.467Z,12.78
2022-10-17T23:48:08.253Z,12.66
2022-10-17T23:51:12.147Z,12.72
2022-10-17T23:54:16.440Z,12.67
2022-10-17T23:57:19.228Z,12.65
